Time;durP1;ratioP1;P1;durP2;ratioP2;P2;SDS_P1;SDS_P2;PMS_P1;PMS_P2;Temp;Humidity;BMP_temperature;BMP_pressure;BME280_temperature;BME280_humidity;BME280_pressure;Samples;Min_cycle;Max_cycle;Signal;HPM_P1;HPM_P2
2023/07/29 00:00:14;;;;;;;3.67;1.80;;;;;;;;;;5110670;28;20040;-70
2023/07/29 00:02:40;;;;;;;2.90;1.92;;;;;;;;;;5110550;28;20044;-73
2023/07/29 00:05:07;;;;;;;3.13;2.25;;;;;;;;;;5110831;28;20051;-70
2023/07/29 00:07:34;;;;;;;3.60;2.03;;;;;;;;;;5110230;28;20507;-69
2023/07/29 00:10:01;;;;;;;3.30;2.00;;;;;;;;;;5110563;28;20051;-70
2023/07/29 00:12:28;;;;;;;3.28;2.20;;;;;;;;;;5110243;28;20051;-70
2023/07/29 00:14:55;;;;;;;3.30;2.03;;;;;;;;;;5110199;28;20424;-69
2023/07/29 00:17:21;;;;;;;2.65;1.90;;;;;;;;;;5110023;28;20491;-71
2023/07/29 00:19:48;;;;;;;3.10;2.08;;;;;;;;;;5092233;28;20548;-71
2023/07/29 00:22:15;;;;;;;2.63;1.98;;;;;;;;;;5110243;28;20043;-67
2023/07/29 00:24:41;;;;;;;2.95;1.80;;;;;;;;;;5110288;28;20425;-68
2023/07/29 00:27:08;;;;;;;3.92;2.08;;;;;;;;;;5109984;28;20062;-68
2023/07/29 00:29:37;;;;;;;3.15;2.10;;;;;;;;;;5110098;28;20514;-68
2023/07/29 00:32:04;;;;;;;4.13;2.40;;;;;;;;;;5109656;28;20055;-68
2023/07/29 00:34:31;;;;;;;2.85;1.90;;;;;;;;;;5110313;28;20047;-68
2023/07/29 00:36:58;;;;;;;2.47;1.60;;;;;;;;;;5110257;28;20058;-68
2023/07/29 00:39:25;;;;;;;2.90;1.88;;;;;;;;;;5110005;28;20495;-68
2023/07/29 00:41:51;;;;;;;3.30;2.17;;;;;;;;;;5109536;28;20051;-68
2023/07/29 00:44:18;;;;;;;4.93;2.28;;;;;;;;;;5110294;28;20660;-67
2023/07/29 00:46:46;;;;;;;3.08;2.03;;;;;;;;;;5109883;28;20404;-72
2023/07/29 00:49:13;;;;;;;3.42;1.90;;;;;;;;;;5110341;28;20047;-70
2023/07/29 00:51:40;;;;;;;3.08;1.75;;;;;;;;;;5109888;28;20047;-70
2023/07/29 00:54:07;;;;;;;5.10;2.22;;;;;;;;;;5110756;28;20048;-68
2023/07/29 00:56:34;;;;;;;3.50;2.20;;;;;;;;;;5114016;28;20050;-69
2023/07/29 00:59:02;;;;;;;4.20;2.25;;;;;;;;;;5114222;28;20122;-69
2023/07/29 01:01:29;;;;;;;3.78;2.03;;;;;;;;;;5113868;28;20487;-72
2023/07/29 01:03:56;;;;;;;3.63;1.92;;;;;;;;;;5114103;28;20123;-69
2023/07/29 01:06:29;;;;;;;3.38;1.83;;;;;;;;;;5114164;28;20044;-69
2023/07/29 01:09:03;;;;;;;2.72;1.70;;;;;;;;;;5113755;28;20483;-69
2023/07/29 01:11:49;;;;;;;3.83;2.13;;;;;;;;;;5113888;28;20104;-69
2023/07/29 01:14:34;;;;;;;3.58;1.98;;;;;;;;;;5114232;28;20161;-70
2023/07/29 01:17:04;;;;;;;3.30;2.20;;;;;;;;;;5113840;28;20044;-72
2023/07/29 01:19:49;;;;;;;3.28;2.20;;;;;;;;;;5113563;28;20039;-69
2023/07/29 01:22:17;;;;;;;3.47;2.13;;;;;;;;;;5113318;28;20044;-71
2023/07/29 01:24:43;;;;;;;2.15;1.55;;;;;;;;;;5113602;28;20047;-77
2023/07/29 01:27:10;;;;;;;3.38;1.92;;;;;;;;;;5113888;28;20046;-77
2023/07/29 01:29:37;;;;;;;4.10;2.20;;;;;;;;;;5113852;28;20044;-70
2023/07/29 01:32:10;;;;;;;2.67;1.88;;;;;;;;;;5113172;28;20055;-69
2023/07/29 01:34:56;;;;;;;3.70;2.13;;;;;;;;;;5113096;28;20618;-68
2023/07/29 01:37:26;;;;;;;3.42;1.90;;;;;;;;;;5113060;28;20495;-68
2023/07/29 01:39:57;;;;;;;3.63;1.98;;;;;;;;;;5095164;28;20044;-75
2023/07/29 01:42:25;;;;;;;5.50;2.00;;;;;;;;;;5112948;28;20055;-68
2023/07/29 01:44:55;;;;;;;3.30;2.10;;;;;;;;;;5113192;28;20047;-68
2023/07/29 01:47:22;;;;;;;3.08;2.00;;;;;;;;;;5113376;28;20131;-68
2023/07/29 01:49:49;;;;;;;3.28;1.98;;;;;;;;;;5113156;28;20127;-72
2023/07/29 01:52:16;;;;;;;4.45;2.05;;;;;;;;;;5112620;28;20048;-68
2023/07/29 01:54:42;;;;;;;3.00;2.10;;;;;;;;;;5112973;28;20070;-72
2023/07/29 01:57:09;;;;;;;3.47;1.92;;;;;;;;;;5112988;28;20044;-70
2023/07/29 01:59:36;;;;;;;2.50;1.75;;;;;;;;;;5113034;28;20105;-69
2023/07/29 02:02:03;;;;;;;2.72;1.90;;;;;;;;;;5112750;28;20051;-69
2023/07/29 02:04:29;;;;;;;3.63;1.85;;;;;;;;;;5112442;28;20039;-68
2023/07/29 02:06:56;;;;;;;2.53;1.65;;;;;;;;;;5112795;28;20438;-68
2023/07/29 02:09:23;;;;;;;2.60;1.80;;;;;;;;;;5112332;28;20122;-68
2023/07/29 02:11:49;;;;;;;3.30;1.90;;;;;;;;;;5112758;28;20059;-70
2023/07/29 02:14:16;;;;;;;3.17;1.80;;;;;;;;;;5112265;28;20048;-68
2023/07/29 02:16:43;;;;;;;2.97;2.00;;;;;;;;;;5112464;28;20428;-71
2023/07/29 02:19:10;;;;;;;3.58;2.00;;;;;;;;;;5112338;28;20069;-71
2023/07/29 02:21:36;;;;;;;3.83;2.10;;;;;;;;;;5112618;28;20054;-68
2023/07/29 02:24:03;;;;;;;4.10;2.10;;;;;;;;;;5112123;28;20044;-68
2023/07/29 02:26:30;;;;;;;3.25;2.10;;;;;;;;;;5113005;28;20046;-70
2023/07/29 02:28:57;;;;;;;3.50;1.90;;;;;;;;;;5112102;28;20040;-68
2023/07/29 02:31:25;;;;;;;3.20;2.00;;;;;;;;;;5111835;28;20063;-68
2023/07/29 02:33:52;;;;;;;3.40;2.13;;;;;;;;;;5111742;28;20044;-69
2023/07/29 02:36:18;;;;;;;2.67;1.95;;;;;;;;;;5094222;28;20449;-69
2023/07/29 02:38:45;;;;;;;2.45;1.67;;;;;;;;;;5112081;28;20126;-69
2023/07/29 02:41:12;;;;;;;2.75;1.83;;;;;;;;;;5112299;28;20061;-68
2023/07/29 02:43:40;;;;;;;2.75;1.67;;;;;;;;;;5111838;28;20083;-69
2023/07/29 02:46:08;;;;;;;3.00;1.88;;;;;;;;;;5112044;28;20472;-71
2023/07/29 02:48:34;;;;;;;3.40;2.00;;;;;;;;;;5111774;28;20499;-69
2023/07/29 02:51:01;;;;;;;3.53;2.03;;;;;;;;;;5112132;28;20058;-69
2023/07/29 02:53:28;;;;;;;3.45;2.30;;;;;;;;;;5111627;28;20054;-69
2023/07/29 02:55:54;;;;;;;2.65;1.90;;;;;;;;;;5111733;28;20582;-71
2023/07/29 02:58:21;;;;;;;3.97;1.80;;;;;;;;;;5111843;28;20039;-68
2023/07/29 03:00:48;;;;;;;2.67;1.98;;;;;;;;;;5112300;28;20044;-72
2023/07/29 03:03:15;;;;;;;3.10;2.03;;;;;;;;;;5112103;28;20051;-69
2023/07/29 03:05:43;;;;;;;4.28;1.92;;;;;;;;;;5111655;28;20422;-68
2023/07/29 03:08:09;;;;;;;4.68;2.20;;;;;;;;;;5111520;28;20047;-68
2023/07/29 03:10:36;;;;;;;2.72;2.03;;;;;;;;;;5112083;28;20101;-68
2023/07/29 03:13:03;;;;;;;3.25;2.10;;;;;;;;;;5111485;28;20100;-68
2023/07/29 03:15:33;;;;;;;4.10;2.10;;;;;;;;;;5111342;28;20039;-68
2023/07/29 03:18:00;;;;;;;;;;;;;;;;;;5111291;28;20044;-68
2023/07/29 03:20:27;;;;;;;2.67;1.90;;;;;;;;;;5111033;28;19927;-68
2023/07/29 03:22:53;;;;;;;3.03;2.00;;;;;;;;;;5111123;28;20043;-67
2023/07/29 03:25:20;;;;;;;4.10;2.00;;;;;;;;;;5111263;28;20043;-68
2023/07/29 03:27:49;;;;;;;2.83;2.00;;;;;;;;;;5111327;28;20071;-68
2023/07/29 03:30:19;;;;;;;4.20;2.00;;;;;;;;;;5110649;28;20044;-71
2023/07/29 03:32:46;;;;;;;;;;;;;;;;;;5111564;28;20051;-69
2023/07/29 03:35:13;;;;;;;3.65;2.13;;;;;;;;;;5111075;28;19963;-72
2023/07/29 03:37:40;;;;;;;2.63;1.67;;;;;;;;;;5110942;28;20043;-70
2023/07/29 03:40:09;;;;;;;3.40;1.95;;;;;;;;;;5110773;28;20046;-69
2023/07/29 03:42:36;;;;;;;3.45;1.85;;;;;;;;;;5110700;28;20051;-68
2023/07/29 03:45:03;;;;;;;4.50;2.00;;;;;;;;;;5110905;28;20054;-72
2023/07/29 03:47:29;;;;;;;3.20;2.08;;;;;;;;;;5111310;28;20067;-69
2023/07/29 03:49:56;;;;;;;4.68;2.08;;;;;;;;;;5110454;28;20051;-68
2023/07/29 03:52:23;;;;;;;3.80;2.10;;;;;;;;;;5110295;28;20047;-72
2023/07/29 03:54:50;;;;;;;3.05;1.98;;;;;;;;;;5110661;28;20047;-72
2023/07/29 03:57:16;;;;;;;4.15;2.10;;;;;;;;;;5111055;28;20046;-69
2023/07/29 03:59:43;;;;;;;5.47;2.10;;;;;;;;;;5110461;28;20134;-69
2023/07/29 04:02:10;;;;;;;3.03;1.80;;;;;;;;;;5111022;28;20047;-69
2023/07/29 04:04:37;;;;;;;2.88;2.08;;;;;;;;;;5110393;28;20609;-68
2023/07/29 04:07:04;;;;;;;3.05;2.05;;;;;;;;;;5110460;28;20457;-73
2023/07/29 04:09:30;;;;;;;2.88;1.92;;;;;;;;;;5110114;28;20039;-76
2023/07/29 04:11:57;;;;;;;3.25;2.03;;;;;;;;;;5110886;28;20043;-76
2023/07/29 04:14:24;;;;;;;2.95;1.83;;;;;;;;;;5110115;28;20044;-70
2023/07/29 04:16:50;;;;;;;2.67;1.95;;;;;;;;;;5110191;28;20487;-69
2023/07/29 04:19:17;;;;;;;4.53;2.20;;;;;;;;;;5110429;28;20104;-70
2023/07/29 04:21:44;;;;;;;3.60;2.20;;;;;;;;;;5110415;28;20419;-69
2023/07/29 04:24:11;;;;;;;2.83;2.05;;;;;;;;;;5091956;28;20047;-69
2023/07/29 04:26:38;;;;;;;2.88;2.08;;;;;;;;;;5110426;28;20058;-69
2023/07/29 04:29:05;;;;;;;4.35;2.05;;;;;;;;;;5110181;28;20040;-68
2023/07/29 04:31:32;;;;;;;2.70;2.00;;;;;;;;;;5109863;28;20161;-68
2023/07/29 04:33:59;;;;;;;4.50;2.13;;;;;;;;;;5109777;28;20411;-69
2023/07/29 04:36:25;;;;;;;2.88;2.10;;;;;;;;;;5110120;28;20048;-69
2023/07/29 04:38:52;;;;;;;2.97;1.85;;;;;;;;;;5092338;28;20050;-68
2023/07/29 04:41:19;;;;;;;3.38;2.10;;;;;;;;;;5110041;28;20047;-68
2023/07/29 04:43:45;;;;;;;3.65;1.98;;;;;;;;;;5110288;28;20047;-69
2023/07/29 04:46:12;;;;;;;2.67;1.90;;;;;;;;;;5109809;28;20514;-69
2023/07/29 04:48:39;;;;;;;3.03;2.05;;;;;;;;;;5110072;28;20381;-68
2023/07/29 04:51:05;;;;;;;4.40;2.00;;;;;;;;;;5109961;28;20066;-68
2023/07/29 04:53:32;;;;;;;2.67;1.88;;;;;;;;;;5109848;28;20047;-69
2023/07/29 04:55:59;;;;;;;3.40;2.10;;;;;;;;;;5109790;28;20044;-68
2023/07/29 04:58:28;;;;;;;2.80;1.85;;;;;;;;;;5110296;28;20046;-68
2023/07/29 05:00:56;;;;;;;2.72;2.05;;;;;;;;;;5109744;28;20043;-69
2023/07/29 05:03:22;;;;;;;3.05;1.95;;;;;;;;;;5109970;28;20491;-68
2023/07/29 05:05:51;;;;;;;2.85;1.70;;;;;;;;;;5109645;28;20048;-70
2023/07/29 05:08:18;;;;;;;3.17;1.85;;;;;;;;;;5109752;28;20047;-68
2023/07/29 05:10:49;;;;;;;3.88;2.22;;;;;;;;;;5109573;28;20051;-73
2023/07/29 05:13:16;;;;;;;3.20;1.90;;;;;;;;;;5109767;28;20040;-71
2023/07/29 05:15:43;;;;;;;2.97;1.90;;;;;;;;;;5109904;28;20044;-68
2023/07/29 05:18:09;;;;;;;2.95;2.00;;;;;;;;;;5109961;28;20075;-70
2023/07/29 05:20:36;;;;;;;6.35;2.20;;;;;;;;;;5109523;28;20047;-69
2023/07/29 05:23:03;;;;;;;4.00;2.00;;;;;;;;;;5109655;28;20040;-74
2023/07/29 05:25:30;;;;;;;2.70;1.83;;;;;;;;;;5109891;28;20044;-68
2023/07/29 05:27:57;;;;;;;3.15;1.88;;;;;;;;;;5110000;28;20051;-73
2023/07/29 05:30:26;;;;;;;2.40;1.90;;;;;;;;;;5109377;28;20055;-68
2023/07/29 05:32:53;;;;;;;3.72;1.80;;;;;;;;;;5109549;28;20063;-68
2023/07/29 05:35:20;;;;;;;3.05;2.05;;;;;;;;;;5109593;28;20082;-69
2023/07/29 05:37:47;;;;;;;4.55;2.17;;;;;;;;;;5109411;28;20120;-72
2023/07/29 05:40:13;;;;;;;2.50;1.70;;;;;;;;;;5110701;28;20043;-70
2023/07/29 05:42:40;;;;;;;2.78;2.00;;;;;;;;;;5113205;28;20078;-68
2023/07/29 05:45:07;;;;;;;3.35;2.17;;;;;;;;;;5113266;28;20062;-68
2023/07/29 05:47:35;;;;;;;4.55;2.13;;;;;;;;;;5113317;28;20075;-70
2023/07/29 05:50:04;;;;;;;4.32;2.20;;;;;;;;;;5112929;28;20449;-69
2023/07/29 05:52:31;;;;;;;3.60;2.13;;;;;;;;;;5112579;28;20450;-68
2023/07/29 05:54:58;;;;;;;2.97;1.95;;;;;;;;;;5112837;28;20052;-71
2023/07/29 05:57:25;;;;;;;2.90;2.00;;;;;;;;;;5112929;28;20399;-71
2023/07/29 05:59:52;;;;;;;3.35;1.90;;;;;;;;;;5113047;28;20063;-68
2023/07/29 06:02:18;;;;;;;5.80;2.13;;;;;;;;;;5112632;28;20051;-73
2023/07/29 06:04:45;;;;;;;6.25;2.25;;;;;;;;;;5112542;28;20597;-75
2023/07/29 06:07:12;;;;;;;3.58;2.00;;;;;;;;;;5112633;28;20048;-70
2023/07/29 06:09:40;;;;;;;4.20;2.50;;;;;;;;;;5112959;28;20043;-70
2023/07/29 06:12:07;;;;;;;2.67;1.92;;;;;;;;;;5112807;28;20132;-68
2023/07/29 06:14:34;;;;;;;3.60;2.20;;;;;;;;;;5112181;28;20058;-68
2023/07/29 06:17:00;;;;;;;3.30;2.10;;;;;;;;;;5112291;28;20039;-69
2023/07/29 06:19:27;;;;;;;5.38;2.25;;;;;;;;;;5112301;28;20046;-73
2023/07/29 06:21:55;;;;;;;4.65;2.30;;;;;;;;;;5112314;28;20407;-69
2023/07/29 06:24:22;;;;;;;3.33;2.30;;;;;;;;;;5112018;28;20496;-74
2023/07/29 06:26:48;;;;;;;5.57;2.63;;;;;;;;;;5112346;28;20054;-68
2023/07/29 06:29:15;;;;;;;3.47;2.30;;;;;;;;;;5112250;28;20087;-68
2023/07/29 06:31:42;;;;;;;4.65;2.50;;;;;;;;;;5111517;28;20499;-69
2023/07/29 06:34:09;;;;;;;5.47;2.95;;;;;;;;;;5111936;28;20126;-74
2023/07/29 06:36:35;;;;;;;3.25;2.35;;;;;;;;;;5112145;28;20308;-69
2023/07/29 06:39:02;;;;;;;3.38;2.00;;;;;;;;;;5112187;28;20120;-70
2023/07/29 06:41:29;;;;;;;4.15;2.55;;;;;;;;;;5112025;28;20047;-69
2023/07/29 06:43:57;;;;;;;4.75;2.65;;;;;;;;;;5111736;28;20126;-68
2023/07/29 06:46:23;;;;;;;2.83;2.25;;;;;;;;;;5112087;28;20043;-69
2023/07/29 06:48:50;;;;;;;4.85;2.30;;;;;;;;;;5112110;28;20048;-70
2023/07/29 06:51:17;;;;;;;4.55;2.10;;;;;;;;;;5111643;28;20044;-76
2023/07/29 06:53:43;;;;;;;3.55;2.13;;;;;;;;;;5111558;28;20419;-73
2023/07/29 06:56:10;;;;;;;5.82;2.30;;;;;;;;;;5111850;28;20059;-69
2023/07/29 06:58:37;;;;;;;2.90;1.88;;;;;;;;;;5112163;28;20055;-69
2023/07/29 07:01:03;;;;;;;3.75;1.90;;;;;;;;;;5111589;28;20040;-68
2023/07/29 07:03:30;;;;;;;5.20;2.60;;;;;;;;;;5111609;28;20620;-67
2023/07/29 07:05:57;;;;;;;2.97;1.98;;;;;;;;;;5111537;28;20536;-69
2023/07/29 07:08:24;;;;;;;2.97;2.00;;;;;;;;;;5111617;28;20050;-68
2023/07/29 07:10:50;;;;;;;3.63;2.50;;;;;;;;;;5111441;28;20040;-68
2023/07/29 07:13:17;;;;;;;4.93;2.50;;;;;;;;;;5111269;28;20407;-68
2023/07/29 07:15:45;;;;;;;3.33;2.42;;;;;;;;;;5111551;28;20052;-70
2023/07/29 07:18:11;;;;;;;4.35;2.47;;;;;;;;;;5111477;28;20541;-69
2023/07/29 07:20:38;;;;;;;3.33;2.20;;;;;;;;;;5111340;28;20479;-69
2023/07/29 07:23:11;;;;;;;4.50;2.13;;;;;;;;;;5111296;28;20040;-68
2023/07/29 07:25:37;;;;;;;4.10;2.60;;;;;;;;;;5111245;28;20422;-68
2023/07/29 07:28:04;;;;;;;5.90;2.50;;;;;;;;;;5110915;28;20438;-68
2023/07/29 07:30:31;;;;;;;3.85;2.42;;;;;;;;;;5110969;28;20142;-68
2023/07/29 07:32:57;;;;;;;3.00;2.13;;;;;;;;;;5110998;28;20040;-68
2023/07/29 07:35:24;;;;;;;4.43;2.30;;;;;;;;;;5111159;28;20047;-70
2023/07/29 07:37:51;;;;;;;3.22;2.30;;;;;;;;;;5110828;28;20050;-67
2023/07/29 07:40:18;;;;;;;3.50;2.60;;;;;;;;;;5111393;28;20050;-69
2023/07/29 07:42:45;;;;;;;3.13;2.08;;;;;;;;;;5092891;28;20044;-68
2023/07/29 07:45:11;;;;;;;3.55;2.10;;;;;;;;;;5110956;28;20158;-68
2023/07/29 07:47:38;;;;;;;2.70;2.05;;;;;;;;;;5110901;28;20047;-68
2023/07/29 07:50:05;;;;;;;5.75;2.47;;;;;;;;;;5110819;28;20048;-68
2023/07/29 07:52:32;;;;;;;4.05;2.35;;;;;;;;;;5110302;28;20056;-69
2023/07/29 07:54:58;;;;;;;4.07;2.78;;;;;;;;;;5110725;28;20047;-68
2023/07/29 07:57:25;;;;;;;4.88;2.50;;;;;;;;;;5110516;28;20043;-67
2023/07/29 07:59:52;;;;;;;3.33;2.33;;;;;;;;;;5110976;28;20051;-68
2023/07/29 08:02:20;;;;;;;3.80;2.50;;;;;;;;;;5110180;28;20054;-67
2023/07/29 08:04:47;;;;;;;4.93;3.08;;;;;;;;;;5110408;28;20105;-68
2023/07/29 08:07:14;;;;;;;4.93;2.40;;;;;;;;;;5110152;28;20043;-70
2023/07/29 08:09:40;;;;;;;3.78;2.65;;;;;;;;;;5110371;28;20083;-69
2023/07/29 08:12:07;;;;;;;3.40;2.40;;;;;;;;;;5110485;28;20047;-68
2023/07/29 08:14:34;;;;;;;5.03;2.10;;;;;;;;;;5092317;28;20437;-69
2023/07/29 08:17:01;;;;;;;3.35;2.25;;;;;;;;;;5110215;28;20050;-69
2023/07/29 08:19:28;;;;;;;3.53;2.50;;;;;;;;;;5110747;28;20079;-69
2023/07/29 08:21:54;;;;;;;3.20;2.20;;;;;;;;;;5110359;28;20043;-72
2023/07/29 08:24:21;;;;;;;2.75;2.00;;;;;;;;;;5110373;28;20048;-70
2023/07/29 08:26:48;;;;;;;2.70;1.88;;;;;;;;;;5110438;28;20043;-68
2023/07/29 08:29:15;;;;;;;2.60;2.00;;;;;;;;;;5110268;28;20136;-70
2023/07/29 08:31:41;;;;;;;2.45;1.92;;;;;;;;;;5109850;28;20055;-69
2023/07/29 08:34:08;;;;;;;2.30;1.50;;;;;;;;;;5109877;28;20100;-70
2023/07/29 08:36:35;;;;;;;2.90;1.70;;;;;;;;;;5110549;28;20044;-69
2023/07/29 08:39:02;;;;;;;2.67;1.80;;;;;;;;;;5092337;28;20043;-69
2023/07/29 08:41:34;;;;;;;3.33;2.08;;;;;;;;;;5110353;28;20379;-68
2023/07/29 08:44:26;;;;;;;3.03;1.80;;;;;;;;;;5110028;28;20047;-68
2023/07/29 08:46:53;;;;;;;2.97;1.88;;;;;;;;;;5110626;28;20138;-73
2023/07/29 08:49:23;;;;;;;2.80;1.90;;;;;;;;;;5109842;28;20044;-69
2023/07/29 08:51:52;;;;;;;3.00;1.90;;;;;;;;;;5110291;28;20055;-70
2023/07/29 08:54:19;;;;;;;2.85;1.80;;;;;;;;;;5110011;28;20048;-68
2023/07/29 08:56:46;;;;;;;3.25;1.75;;;;;;;;;;5110641;28;20051;-73
2023/07/29 08:59:14;;;;;;;2.47;1.88;;;;;;;;;;5109868;28;20051;-69
2023/07/29 09:01:41;;;;;;;2.92;1.90;;;;;;;;;;5110337;28;20055;-69
2023/07/29 09:04:08;;;;;;;3.13;2.00;;;;;;;;;;5109737;28;20062;-69
2023/07/29 09:06:38;;;;;;;2.38;1.85;;;;;;;;;;5110308;28;20130;-69
2023/07/29 09:09:07;;;;;;;2.78;1.80;;;;;;;;;;5109953;28;20051;-75
2023/07/29 09:11:35;;;;;;;2.60;1.70;;;;;;;;;;5109723;28;20466;-73
2023/07/29 09:14:02;;;;;;;2.92;1.63;;;;;;;;;;5109500;28;20078;-68
2023/07/29 09:16:28;;;;;;;2.40;1.60;;;;;;;;;;5113038;28;20044;-70
2023/07/29 09:18:57;;;;;;;3.20;1.80;;;;;;;;;;5113622;28;20043;-73
2023/07/29 09:21:26;;;;;;;3.40;1.55;;;;;;;;;;5113972;28;20093;-70
2023/07/29 09:23:53;;;;;;;2.70;1.60;;;;;;;;;;5113595;28;20043;-68
2023/07/29 09:26:27;;;;;;;2.78;1.63;;;;;;;;;;5113648;28;20053;-70
2023/07/29 09:28:56;;;;;;;2.63;1.90;;;;;;;;;;5113236;28;20051;-67
2023/07/29 09:31:24;;;;;;;2.67;1.38;;;;;;;;;;5113309;28;20062;-73
2023/07/29 09:33:59;;;;;;;1.95;1.42;;;;;;;;;;5113232;28;20131;-77
2023/07/29 09:36:26;;;;;;;2.80;1.63;;;;;;;;;;5113224;28;20653;-76
2023/07/29 09:38:54;;;;;;;2.88;1.58;;;;;;;;;;5113374;28;20050;-68
2023/07/29 09:41:25;;;;;;;2.15;1.58;;;;;;;;;;5113329;28;20126;-68
2023/07/29 09:44:02;;;;;;;2.55;1.50;;;;;;;;;;5112970;28;20048;-69
2023/07/29 09:46:36;;;;;;;2.72;1.85;;;;;;;;;;5113187;28;20043;-68
2023/07/29 09:49:05;;;;;;;2.63;1.60;;;;;;;;;;5112974;28;20043;-68
2023/07/29 09:51:38;;;;;;;3.05;1.50;;;;;;;;;;5113075;28;20135;-69
2023/07/29 09:54:04;;;;;;;2.35;1.65;;;;;;;;;;5094870;28;20047;-70
2023/07/29 09:56:31;;;;;;;2.63;1.60;;;;;;;;;;5113112;28;20044;-68
2023/07/29 09:58:58;;;;;;;3.15;1.83;;;;;;;;;;5113066;28;20039;-68
2023/07/29 10:01:26;;;;;;;2.97;1.80;;;;;;;;;;5113371;28;20051;-68
2023/07/29 10:03:56;;;;;;;2.17;1.40;;;;;;;;;;5112650;28;20130;-69
2023/07/29 10:06:24;;;;;;;;;;;;;;;;;;5113126;28;20043;-68
2023/07/29 10:08:52;;;;;;;1.88;1.40;;;;;;;;;;5112560;28;19927;-73
2023/07/29 10:11:21;;;;;;;5.13;1.65;;;;;;;;;;5112603;28;20530;-68
2023/07/29 10:13:48;;;;;;;4.18;1.73;;;;;;;;;;5112591;28;20047;-67
2023/07/29 10:16:35;;;;;;;3.92;1.80;;;;;;;;;;5112507;28;20147;-72
2023/07/29 10:19:04;;;;;;;2.63;1.77;;;;;;;;;;5112432;28;20047;-68
2023/07/29 10:21:32;;;;;;;2.10;1.40;;;;;;;;;;5112992;28;20562;-68
2023/07/29 10:24:02;;;;;;;2.40;1.63;;;;;;;;;;5112345;28;20043;-68
2023/07/29 10:26:33;;;;;;;6.00;1.70;;;;;;;;;;5112001;28;20126;-69
2023/07/29 10:29:04;;;;;;;2.50;1.80;;;;;;;;;;5112069;28;20131;-68
2023/07/29 10:31:32;;;;;;;4.15;1.90;;;;;;;;;;5112321;28;20445;-72
2023/07/29 10:33:59;;;;;;;3.10;1.80;;;;;;;;;;5112491;28;20047;-68
2023/07/29 10:36:27;;;;;;;3.63;1.98;;;;;;;;;;5112519;28;20051;-67
2023/07/29 10:38:54;;;;;;;2.40;1.63;;;;;;;;;;5112254;28;20043;-71
2023/07/29 10:41:22;;;;;;;2.67;1.65;;;;;;;;;;5112617;28;20043;-68
2023/07/29 10:43:48;;;;;;;3.47;1.92;;;;;;;;;;5111848;28;20044;-68
2023/07/29 10:46:20;;;;;;;2.40;1.60;;;;;;;;;;5112171;28;20048;-68
2023/07/29 10:48:51;;;;;;;2.10;1.38;;;;;;;;;;5093826;28;20102;-70
2023/07/29 10:51:29;;;;;;;3.75;1.98;;;;;;;;;;5111900;28;20043;-68
2023/07/29 10:53:58;;;;;;;3.25;1.70;;;;;;;;;;5111662;28;20089;-68
2023/07/29 10:56:27;;;;;;;3.25;1.60;;;;;;;;;;5111851;28;20048;-72
2023/07/29 10:59:02;;;;;;;3.25;1.80;;;;;;;;;;5111983;28;20146;-68
2023/07/29 11:01:32;;;;;;;4.13;1.60;;;;;;;;;;5112225;28;20048;-68
2023/07/29 11:04:23;;;;;;;2.53;1.80;;;;;;;;;;5111893;28;20124;-68
2023/07/29 11:07:03;;;;;;;2.40;1.70;;;;;;;;;;5111985;28;20039;-74
2023/07/29 11:09:48;;;;;;;4.70;1.80;;;;;;;;;;5111469;28;20439;-69
2023/07/29 11:12:40;;;;;;;2.70;1.35;;;;;;;;;;5111536;28;20127;-68
2023/07/29 11:15:09;;;;;;;3.67;1.50;;;;;;;;;;5111317;28;20067;-72
2023/07/29 11:17:43;;;;;;;2.28;1.55;;;;;;;;;;5111820;28;20044;-70
2023/07/29 11:20:11;;;;;;;2.75;1.77;;;;;;;;;;5111043;28;20471;-71
2023/07/29 11:22:39;;;;;;;3.78;1.83;;;;;;;;;;5111419;28;20154;-72
2023/07/29 11:25:09;;;;;;;2.17;1.33;;;;;;;;;;5111203;28;20054;-68
2023/07/29 11:27:36;;;;;;;;;;;;;;;;;;5111708;28;20126;-68
2023/07/29 11:30:08;;;;;;;2.53;1.55;;;;;;;;;;5110819;28;19920;-70
2023/07/29 11:32:36;;;;;;;2.67;1.80;;;;;;;;;;5111272;28;20093;-69
2023/07/29 11:35:04;;;;;;;2.28;1.50;;;;;;;;;;5111185;28;20118;-72
2023/07/29 11:37:33;;;;;;;3.75;1.50;;;;;;;;;;5110377;28;20484;-70
2023/07/29 11:40:00;;;;;;;2.42;1.52;;;;;;;;;;5110903;28;20078;-67
2023/07/29 11:42:27;;;;;;;2.80;1.60;;;;;;;;;;5111069;28;20051;-67
2023/07/29 11:44:58;;;;;;;3.20;1.65;;;;;;;;;;5110974;28;20123;-67
2023/07/29 11:47:25;;;;;;;2.63;1.70;;;;;;;;;;5110847;28;20040;-68
2023/07/29 11:49:52;;;;;;;3.65;1.60;;;;;;;;;;5110529;28;20562;-67
2023/07/29 11:52:19;;;;;;;2.45;1.63;;;;;;;;;;5110707;28;20043;-67
2023/07/29 11:54:48;;;;;;;3.67;2.10;;;;;;;;;;5110781;28;20062;-67
2023/07/29 11:57:16;;;;;;;3.38;1.60;;;;;;;;;;5110672;28;20521;-67
2023/07/29 11:59:44;;;;;;;2.58;1.73;;;;;;;;;;5110752;28;20415;-67
2023/07/29 12:02:17;;;;;;;2.88;1.70;;;;;;;;;;5111250;28;20059;-67
2023/07/29 12:04:46;;;;;;;2.45;1.38;;;;;;;;;;5110553;28;20044;-67
2023/07/29 12:07:14;;;;;;;2.70;1.70;;;;;;;;;;5110160;28;20044;-68
2023/07/29 12:09:45;;;;;;;2.75;1.70;;;;;;;;;;5110581;28;20063;-67
2023/07/29 12:12:12;;;;;;;3.55;1.80;;;;;;;;;;5110800;28;20051;-70
2023/07/29 12:14:38;;;;;;;3.08;1.80;;;;;;;;;;5110449;28;20491;-76
2023/07/29 12:17:06;;;;;;;3.40;1.92;;;;;;;;;;5110446;28;20052;-76
2023/07/29 12:19:37;;;;;;;2.70;1.65;;;;;;;;;;5110769;28;20044;-71
2023/07/29 12:22:06;;;;;;;2.33;1.70;;;;;;;;;;5110352;28;20044;-70
2023/07/29 12:24:34;;;;;;;2.50;1.80;;;;;;;;;;5110550;28;20056;-68
2023/07/29 12:27:01;;;;;;;3.80;2.03;;;;;;;;;;5110162;28;20039;-68
2023/07/29 12:29:28;;;;;;;3.30;1.90;;;;;;;;;;5110181;28;20138;-68
2023/07/29 12:32:00;;;;;;;3.17;1.90;;;;;;;;;;5110087;28;20509;-69
2023/07/29 12:34:28;;;;;;;2.75;1.95;;;;;;;;;;5110530;28;20106;-69
2023/07/29 12:36:56;;;;;;;3.13;1.90;;;;;;;;;;5110402;28;20048;-70
2023/07/29 12:39:30;;;;;;;3.55;2.20;;;;;;;;;;5110219;28;20146;-69
2023/07/29 12:41:58;;;;;;;3.75;1.80;;;;;;;;;;5110426;28;20047;-68
2023/07/29 12:44:29;;;;;;;3.92;2.08;;;;;;;;;;5092445;28;20058;-73
2023/07/29 12:46:56;;;;;;;4.10;2.20;;;;;;;;;;5109443;28;20058;-70
2023/07/29 12:49:23;;;;;;;3.20;1.92;;;;;;;;;;5111786;28;20101;-70
2023/07/29 12:51:49;;;;;;;2.17;1.58;;;;;;;;;;5114128;28;20058;-70
2023/07/29 12:54:16;;;;;;;3.80;2.20;;;;;;;;;;5114560;28;20048;-68
2023/07/29 12:56:42;;;;;;;4.35;2.13;;;;;;;;;;5114027;28;20040;-69
2023/07/29 12:59:09;;;;;;;2.85;1.85;;;;;;;;;;5114458;28;20047;-68
2023/07/29 13:01:36;;;;;;;2.67;1.88;;;;;;;;;;5113843;28;20048;-73
2023/07/29 13:04:03;;;;;;;3.90;2.10;;;;;;;;;;5114200;28;20039;-69
2023/07/29 13:06:30;;;;;;;4.15;1.90;;;;;;;;;;5113576;28;20204;-70
2023/07/29 13:08:58;;;;;;;2.22;1.63;;;;;;;;;;5114084;28;20040;-70
2023/07/29 13:11:26;;;;;;;2.28;1.77;;;;;;;;;;5113793;28;20074;-69
2023/07/29 13:13:52;;;;;;;2.55;1.95;;;;;;;;;;5113764;28;20040;-70
2023/07/29 13:16:19;;;;;;;3.28;1.75;;;;;;;;;;5114097;28;20056;-68
2023/07/29 13:18:46;;;;;;;2.75;2.00;;;;;;;;;;5114040;28;20491;-68
2023/07/29 13:21:13;;;;;;;3.13;2.05;;;;;;;;;;5113674;28;20071;-68
2023/07/29 13:23:39;;;;;;;6.15;2.03;;;;;;;;;;5113792;28;20051;-68
2023/07/29 13:26:06;;;;;;;2.97;1.90;;;;;;;;;;5113184;28;20048;-71
2023/07/29 13:28:32;;;;;;;4.85;1.92;;;;;;;;;;5113416;28;20040;-69
2023/07/29 13:31:01;;;;;;;3.97;1.70;;;;;;;;;;5113257;28;20051;-70
2023/07/29 13:33:28;;;;;;;3.58;2.10;;;;;;;;;;5113821;28;20094;-71
2023/07/29 13:35:54;;;;;;;3.53;1.77;;;;;;;;;;5113520;28;20043;-68
2023/07/29 13:38:21;;;;;;;2.75;1.90;;;;;;;;;;5113586;28;20196;-69
2023/07/29 13:40:50;;;;;;;2.83;1.70;;;;;;;;;;5113574;28;20055;-71
2023/07/29 13:43:17;;;;;;;2.10;1.50;;;;;;;;;;5113662;28;20127;-69
2023/07/29 13:45:44;;;;;;;2.72;1.90;;;;;;;;;;5113292;28;20047;-68
2023/07/29 13:48:11;;;;;;;3.13;1.90;;;;;;;;;;5113036;28;20404;-69
2023/07/29 13:50:38;;;;;;;2.88;1.90;;;;;;;;;;5113057;28;20047;-70
2023/07/29 13:53:05;;;;;;;3.10;1.80;;;;;;;;;;5113294;28;20048;-69
2023/07/29 13:55:31;;;;;;;5.07;2.42;;;;;;;;;;5113090;28;20449;-67
2023/07/29 13:57:58;;;;;;;3.47;1.90;;;;;;;;;;5113249;28;20047;-68
2023/07/29 14:00:25;;;;;;;3.75;1.77;;;;;;;;;;5112295;28;20047;-69
2023/07/29 14:02:51;;;;;;;3.45;2.00;;;;;;;;;;5112784;28;20479;-69
2023/07/29 14:05:18;;;;;;;5.20;1.90;;;;;;;;;;5112749;28;20054;-70
2023/07/29 14:07:45;;;;;;;4.47;1.75;;;;;;;;;;5112368;28;20507;-69
2023/07/29 14:10:12;;;;;;;2.72;1.70;;;;;;;;;;5112749;28;20044;-72
2023/07/29 14:12:39;;;;;;;2.45;1.58;;;;;;;;;;5112843;28;20119;-72
2023/07/29 14:15:06;;;;;;;2.55;1.80;;;;;;;;;;5112835;28;20043;-71
2023/07/29 14:17:33;;;;;;;4.30;2.00;;;;;;;;;;5112578;28;20046;-73
2023/07/29 14:19:59;;;;;;;4.45;1.80;;;;;;;;;;5112836;28;20448;-68
2023/07/29 14:22:26;;;;;;;3.00;1.88;;;;;;;;;;5112425;28;20079;-69
2023/07/29 14:24:53;;;;;;;2.80;1.73;;;;;;;;;;5112584;28;20054;-69
2023/07/29 14:27:19;;;;;;;3.10;1.77;;;;;;;;;;5112076;28;20055;-69
2023/07/29 14:29:46;;;;;;;4.70;2.10;;;;;;;;;;5112444;28;20050;-71
2023/07/29 14:32:13;;;;;;;4.60;1.90;;;;;;;;;;5111965;28;20074;-69
2023/07/29 14:34:39;;;;;;;5.55;1.50;;;;;;;;;;5112510;28;20059;-69
2023/07/29 14:37:06;;;;;;;2.83;1.85;;;;;;;;;;5112079;28;20054;-68
2023/07/29 14:39:33;;;;;;;4.15;1.92;;;;;;;;;;5112394;28;20047;-68
2023/07/29 14:41:59;;;;;;;3.20;1.75;;;;;;;;;;5112276;28;20066;-67
2023/07/29 14:44:26;;;;;;;3.45;1.92;;;;;;;;;;5112413;28;20039;-67
2023/07/29 14:46:53;;;;;;;6.80;2.05;;;;;;;;;;5111795;28;20051;-68